الصفحة الرئيسية
METAR-TAF:

METAR-TAF

مطار :

مطار نورمان مانلي الدولي

كينغستون, جامايكا

دائرة عرض: 17-56N, خط طول: 076-47W, ارتفاع: 3 متر

مراقبة الطقس الحالي

تاريخ ووقت الإصدار 58 دقيقة قبل الساعة 09:00UTC
ريح 9 عقدة من الشرق/الجنوب الشرقي
درجة الحرارة 28°درجة مئوية
الرطوبة 79%
ضغط 1014 hPa
الرؤية 10 كم أو أكثر
غيوم قليلة على ارتفاع 2000 قدم

METAR: MKJP 250900Z 11009KT 9999 FEW020 28/24 Q1014

زمن: 04:58 (09:58 UTC)

توقعات

تاريخ ووقت الإصدار 4ساعات و 43 دقيقة قبل الساعة 05:15UTC
التوقعات صالحة من25 الساعة 06 UTC إلى 26 الساعة 06 UTC
ريح 10 عقدة من الشرق/الجنوب الشرقي
الرؤية 10 كم أو أكثر
غيوم قليلة على ارتفاع 2200 قدم
أصبح
من 25 الساعة 14 UTC إلى 25 الساعة 16 UTC
ريح 20 عقدة من الجنوب الشرقي
غيوم متفرقة على ارتفاع 2000 قدم
غيوم قليلة على ارتفاع 2200 قدم, مزنة ركامية.
أصبح
من 26 الساعة 02 UTC إلى 26 الساعة 04 UTC
ريح 8 عقدة من الشرق/الجنوب الشرقي
غيوم قليلة على ارتفاع 2200 قدم

TAF: MKJP 250515Z 2506/2606 12010KT 9999 FEW022 BECMG 2514/2516 14020KT SCT020 FEW022CB BECMG 2602/2604 11008KT FEW022

أرصاد الطقس والتوقعات من أكثر من 4000 مطار (تقارير الطقس للمطار METAR والتنبؤ بالطقس بالمطارTAF).

المحطات المتاحة هي النقط الصفراء والحمراء على الخريطة.

حرك المؤشر فوق النقطة لمعرفة اسم المحطة.

ثم انقر لمعرفة أرصاد وتوقعات الطقس.

لتغيير الخارطة: اضغط على الأزرار الخضراء مع رمز الصليب الأسود للتكبير. على الزر الأخضر مع شرطة للتصغير، أو على الأسهم الخضراء للخرائط المجاورة.


METAR-TAF: